createdAt,value
2018-11-13T00:02:18.412Z,9.03
2018-11-13T00:04:48.520Z,8.17
2018-11-13T00:07:18.572Z,9.90
2018-11-13T00:09:48.594Z,9.00
2018-11-13T00:12:18.590Z,8.57
2018-11-13T00:14:48.721Z,9.83
2018-11-13T00:17:18.969Z,9.07
2018-11-13T00:19:49.032Z,9.47
2018-11-13T00:22:19.135Z,8.87
2018-11-13T00:24:49.114Z,8.93
2018-11-13T00:27:19.256Z,8.47
2018-11-13T00:29:49.299Z,10.37
2018-11-13T00:32:19.299Z,9.17
2018-11-13T00:34:49.343Z,8.30
2018-11-13T00:37:19.511Z,9.70
2018-11-13T00:39:49.555Z,8.77
2018-11-13T00:42:19.601Z,9.03
2018-11-13T00:44:49.751Z,8.33
2018-11-13T00:47:19.651Z,8.73
2018-11-13T00:49:49.712Z,8.67
2018-11-13T00:52:19.709Z,9.07
2018-11-13T00:54:49.690Z,7.90
2018-11-13T00:57:19.782Z,9.93
2018-11-13T00:59:49.848Z,9.37
2018-11-13T01:02:19.994Z,9.13
2018-11-13T01:04:50.076Z,7.87
2018-11-13T01:07:20.151Z,8.20
2018-11-13T01:09:50.256Z,8.43
2018-11-13T01:12:20.256Z,8.67
2018-11-13T01:14:50.358Z,8.20
2018-11-13T01:17:20.383Z,10.00
2018-11-13T01:19:50.355Z,9.93
2018-11-13T01:22:20.498Z,9.10
2018-11-13T01:24:50.659Z,10.50
2018-11-13T01:27:20.657Z,9.67
2018-11-13T01:29:57.459Z,8.23
2018-11-13T01:32:28.790Z,8.57
2018-11-13T01:34:58.872Z,9.40
2018-11-13T01:37:28.973Z,11.27
2018-11-13T01:39:58.967Z,10.80
2018-11-13T01:42:28.976Z,8.50
2018-11-13T01:44:59.044Z,9.33
2018-11-13T01:47:29.049Z,8.00
2018-11-13T01:49:59.057Z,8.80
2018-11-13T01:52:29.141Z,7.43
2018-11-13T01:54:59.252Z,7.93
2018-11-13T01:57:29.303Z,7.23
2018-11-13T01:59:59.299Z,6.77
2018-11-13T02:02:29.473Z,8.73
2018-11-13T02:04:59.524Z,7.43
2018-11-13T02:07:29.514Z,7.40
2018-11-13T02:09:59.540Z,8.53
2018-11-13T02:12:29.573Z,6.73
2018-11-13T02:14:59.531Z,7.80
2018-11-13T02:17:29.492Z,8.23
2018-11-13T02:19:59.755Z,7.17
2018-11-13T02:22:29.876Z,9.73
2018-11-13T02:24:59.921Z,7.90
2018-11-13T02:27:29.966Z,8.53
2018-11-13T02:30:00.011Z,7.83
2018-11-13T02:32:30.009Z,8.07
2018-11-13T02:35:00.084Z,7.57
2018-11-13T02:37:30.141Z,8.20
2018-11-13T02:40:00.179Z,7.67
2018-11-13T02:42:30.194Z,8.23
2018-11-13T02:45:00.224Z,8.03
2018-11-13T02:47:30.315Z,8.17
2018-11-13T02:50:00.423Z,9.83
2018-11-13T02:52:30.511Z,9.57
2018-11-13T02:55:00.501Z,8.17
2018-11-13T02:57:31.067Z,6.97
2018-11-13T03:00:01.093Z,9.13
2018-11-13T03:02:31.277Z,7.47
2018-11-13T03:05:01.310Z,8.47
2018-11-13T03:07:31.389Z,9.97
2018-11-13T03:10:01.496Z,8.07
2018-11-13T03:12:31.149Z,9.70
2018-11-13T03:15:01.330Z,8.63
2018-11-13T03:17:31.490Z,7.50
2018-11-13T03:20:01.633Z,8.90
2018-11-13T03:22:31.833Z,8.60
2018-11-13T03:25:02.137Z,7.50
2018-11-13T03:27:32.187Z,8.13
2018-11-13T03:30:02.411Z,7.83
2018-11-13T03:32:32.550Z,7.37
2018-11-13T03:35:02.590Z,6.77
2018-11-13T03:37:32.622Z,7.17
2018-11-13T03:40:02.779Z,8.00
2018-11-13T03:42:32.882Z,8.33
2018-11-13T03:45:03.001Z,10.03
2018-11-13T03:47:32.997Z,7.77
2018-11-13T03:50:03.145Z,9.67
2018-11-13T03:52:33.153Z,8.73
2018-11-13T03:55:03.202Z,6.73
2018-11-13T03:57:33.193Z,7.93
2018-11-13T04:00:03.313Z,7.43
2018-11-13T04:02:33.358Z,7.63
2018-11-13T04:05:03.417Z,8.37
2018-11-13T04:07:33.533Z,7.83
2018-11-13T04:10:03.678Z,7.67
2018-11-13T04:12:33.820Z,9.47
2018-11-13T04:15:03.950Z,8.20
2018-11-13T04:17:33.952Z,7.20
2018-11-13T04:20:04.022Z,9.37
2018-11-13T04:22:34.042Z,9.13
2018-11-13T04:25:04.131Z,8.17
2018-11-13T04:27:34.186Z,6.77
2018-11-13T04:30:04.315Z,8.57
2018-11-13T04:32:34.350Z,8.97
2018-11-13T04:35:04.460Z,7.03
2018-11-13T04:37:34.500Z,7.50
2018-11-13T04:40:06.529Z,7.17
2018-11-13T04:42:36.636Z,7.47
2018-11-13T04:45:08.379Z,9.27
2018-11-13T04:47:38.706Z,8.90
2018-11-13T04:50:10.756Z,8.03
2018-11-13T04:52:41.008Z,7.90
2018-11-13T04:55:11.508Z,9.17
2018-11-13T04:57:42.605Z,7.40
2018-11-13T05:00:15.438Z,7.57
2018-11-13T05:02:46.088Z,9.00
2018-11-13T05:05:16.972Z,7.40
2018-11-13T05:07:48.365Z,6.70
2018-11-13T05:10:18.456Z,6.43
2018-11-13T05:12:48.970Z,8.13
2018-11-13T05:15:19.122Z,7.63
2018-11-13T05:17:49.319Z,7.50
2018-11-13T05:20:19.465Z,8.13
2018-11-13T05:22:49.630Z,8.17
2018-11-13T05:25:20.780Z,8.60
2018-11-13T05:27:50.870Z,8.10
2018-11-13T05:30:21.968Z,7.27
2018-11-13T05:32:52.206Z,7.00
2018-11-13T05:35:22.879Z,7.53
2018-11-13T05:37:52.959Z,8.37
2018-11-13T05:40:24.119Z,6.83
2018-11-13T05:42:54.232Z,7.33
2018-11-13T05:45:25.502Z,7.53
2018-11-13T05:47:55.549Z,7.93
2018-11-13T05:50:25.755Z,7.27
2018-11-13T05:52:55.932Z,9.57
2018-11-13T05:55:26.195Z,7.23
2018-11-13T05:57:56.344Z,9.30
2018-11-13T06:00:30.937Z,6.77
2018-11-13T06:03:01.889Z,7.93
2018-11-13T06:05:32.322Z,7.80
2018-11-13T06:08:02.510Z,7.47
2018-11-13T06:10:32.586Z,8.43
2018-11-13T06:13:02.755Z,8.97
2018-11-13T06:15:32.793Z,8.67
2018-11-13T06:18:02.929Z,8.77
2018-11-13T06:20:33.221Z,10.33
2018-11-13T06:23:03.266Z,8.33
2018-11-13T06:25:33.530Z,9.40
2018-11-13T06:28:03.700Z,9.20
2018-11-13T06:30:33.834Z,8.27
2018-11-13T06:33:04.084Z,9.20
2018-11-13T06:35:34.147Z,10.03
2018-11-13T06:38:04.365Z,10.30
2018-11-13T06:40:34.405Z,9.57
2018-11-13T06:43:04.511Z,9.70
2018-11-13T06:45:34.576Z,10.07
2018-11-13T06:48:04.669Z,11.13
2018-11-13T06:50:34.750Z,9.53
2018-11-13T06:53:04.784Z,9.53
2018-11-13T06:55:35.932Z,9.00
2018-11-13T06:58:06.454Z,8.60
2018-11-13T07:00:36.670Z,8.73
2018-11-13T07:03:06.703Z,9.00
2018-11-13T07:05:36.791Z,9.77
2018-11-13T07:08:07.092Z,8.43
2018-11-13T07:10:37.224Z,8.87
2018-11-13T07:13:07.453Z,8.27
2018-11-13T07:15:37.598Z,8.00
2018-11-13T07:18:07.790Z,7.70
2018-11-13T07:20:38.098Z,7.83
2018-11-13T07:23:08.331Z,9.60
2018-11-13T07:25:38.537Z,9.33
2018-11-13T07:28:08.731Z,8.93
2018-11-13T07:30:38.835Z,8.60
2018-11-13T07:33:08.865Z,9.37
2018-11-13T07:35:38.985Z,9.97
2018-11-13T07:38:09.125Z,7.60
2018-11-13T07:40:39.198Z,9.23
2018-11-13T07:43:09.280Z,8.70
2018-11-13T07:45:39.324Z,10.73
2018-11-13T07:48:09.369Z,10.67
2018-11-13T07:50:39.517Z,8.27
2018-11-13T07:53:09.559Z,9.37
2018-11-13T07:55:39.650Z,8.13
2018-11-13T07:58:09.773Z,8.93
2018-11-13T08:00:39.862Z,7.90
2018-11-13T08:03:20.734Z,7.43
2018-11-13T08:05:50.836Z,10.20
2018-11-13T08:08:20.989Z,8.37
2018-11-13T08:10:51.098Z,9.87
2018-11-13T08:13:21.266Z,10.10
2018-11-13T08:15:51.369Z,9.17
2018-11-13T08:18:21.713Z,10.70
2018-11-13T08:20:51.644Z,7.27
2018-11-13T08:23:21.686Z,13.13
2018-11-13T08:25:51.772Z,9.33
2018-11-13T08:28:21.875Z,8.23
2018-11-13T08:30:51.882Z,8.73
2018-11-13T08:33:22.119Z,8.53
2018-11-13T08:35:52.269Z,10.37
2018-11-13T08:38:22.442Z,8.27
2018-11-13T08:40:52.540Z,9.07
2018-11-13T08:43:22.665Z,8.20
2018-11-13T08:45:52.823Z,7.60
2018-11-13T08:48:23.230Z,9.50
2018-11-13T08:50:53.442Z,7.27
2018-11-13T08:53:23.645Z,9.30
2018-11-13T08:55:53.873Z,9.07
2018-11-13T08:58:24.012Z,8.10
2018-11-13T09:00:54.115Z,10.63
2018-11-13T09:03:24.272Z,9.77
2018-11-13T09:05:54.428Z,10.47
2018-11-13T09:08:24.537Z,9.27
2018-11-13T09:10:54.654Z,10.07
2018-11-13T09:13:24.653Z,9.47
2018-11-13T09:15:54.809Z,10.47
2018-11-13T09:18:25.009Z,10.23
2018-11-13T09:20:55.132Z,11.10
2018-11-13T09:23:25.234Z,12.17
2018-11-13T09:25:55.287Z,12.27
2018-11-13T09:28:25.335Z,14.60
2018-11-13T09:30:55.893Z,11.33
2018-11-13T09:33:25.784Z,10.27
2018-11-13T09:35:55.843Z,10.23
2018-11-13T09:38:25.981Z,11.07
2018-11-13T09:40:56.129Z,10.67
2018-11-13T09:43:26.160Z,10.97
2018-11-13T09:45:56.282Z,10.60
2018-11-13T09:48:26.353Z,11.60
2018-11-13T09:50:56.544Z,10.93
2018-11-13T09:53:26.778Z,12.67
2018-11-13T09:55:56.934Z,11.37
2018-11-13T09:58:27.081Z,11.27
2018-11-13T10:00:57.535Z,10.80
2018-11-13T10:03:27.820Z,11.00
2018-11-13T10:05:57.792Z,12.80
2018-11-13T10:08:27.892Z,11.83
2018-11-13T10:10:57.958Z,11.37
2018-11-13T10:13:28.108Z,11.50
2018-11-13T10:15:58.329Z,12.37
2018-11-13T10:18:28.170Z,11.97
2018-11-13T10:20:58.434Z,10.83
2018-11-13T10:23:28.563Z,10.30
2018-11-13T10:25:58.722Z,9.67
2018-11-13T10:28:28.789Z,8.90
2018-11-13T10:30:58.754Z,9.90
2018-11-13T10:33:28.890Z,10.63
2018-11-13T10:35:58.932Z,13.67
2018-11-13T10:38:28.974Z,11.53
2018-11-13T10:40:59.145Z,11.07
2018-11-13T10:43:29.158Z,11.70
2018-11-13T10:45:59.717Z,9.67
2018-11-13T10:48:29.740Z,9.37
2018-11-13T10:50:59.842Z,8.77
2018-11-13T10:53:29.952Z,9.30
2018-11-13T10:56:00.069Z,10.37
2018-11-13T10:58:30.116Z,9.07
2018-11-13T11:01:04.168Z,9.87
2018-11-13T11:03:39.189Z,9.17
2018-11-13T11:06:09.382Z,9.10
2018-11-13T11:08:39.442Z,10.10
2018-11-13T11:11:09.424Z,11.33
2018-11-13T11:13:39.690Z,11.50
2018-11-13T11:16:09.814Z,11.00
2018-11-13T11:18:39.911Z,11.03
2018-11-13T11:21:09.877Z,12.67
2018-11-13T11:23:40.001Z,9.83
2018-11-13T11:26:10.376Z,10.50
2018-11-13T11:28:40.511Z,9.93
2018-11-13T11:31:10.606Z,13.70
2018-11-13T11:33:40.703Z,10.13
2018-11-13T11:36:10.699Z,11.27
2018-11-13T11:38:40.792Z,15.10
2018-11-13T11:41:10.794Z,13.03
2018-11-13T11:43:40.875Z,17.90
2018-11-13T11:46:10.968Z,15.03
2018-11-13T11:48:41.045Z,10.13
2018-11-13T11:51:11.134Z,8.03
2018-11-13T11:53:41.359Z,9.93
2018-11-13T11:56:11.367Z,10.13
2018-11-13T11:58:41.434Z,9.90
2018-11-13T12:01:11.582Z,10.43
2018-11-13T12:03:41.558Z,9.50
2018-11-13T12:06:11.674Z,7.70
2018-11-13T12:08:41.817Z,5.53
2018-11-13T12:11:12.040Z,3.47
2018-11-13T12:13:42.126Z,2.50
2018-11-13T12:16:12.248Z,4.50
2018-11-13T12:18:42.454Z,2.03
2018-11-13T12:21:12.684Z,2.37
2018-11-13T12:23:42.870Z,4.03
2018-11-13T12:26:12.856Z,4.87
2018-11-13T12:28:42.943Z,2.10
2018-11-13T12:31:13.062Z,3.57
2018-11-13T12:33:43.129Z,2.23
2018-11-13T12:36:13.278Z,2.60
2018-11-13T12:38:43.383Z,2.20
2018-11-13T12:41:13.531Z,3.07
2018-11-13T12:43:43.657Z,2.10
2018-11-13T12:46:13.795Z,15.90
2018-11-13T12:48:44.387Z,3.90
2018-11-13T12:51:19.440Z,8.97
2018-11-13T12:53:49.486Z,4.50
2018-11-13T12:56:19.552Z,2.27
2018-11-13T12:58:49.524Z,2.37
2018-11-13T13:01:19.640Z,1.30
2018-11-13T13:03:49.693Z,13.33
2018-11-13T13:06:19.769Z,5.30
2018-11-13T13:08:49.942Z,4.07
2018-11-13T13:11:19.967Z,5.07
2018-11-13T13:13:53.994Z,11.43
2018-11-13T13:16:24.099Z,3.20
2018-11-13T13:18:54.242Z,4.63
2018-11-13T13:21:24.351Z,1.10
2018-11-13T13:23:54.502Z,2.07
2018-11-13T13:26:24.501Z,0.70
2018-11-13T13:28:54.697Z,1.43
2018-11-13T13:31:24.725Z,1.57
2018-11-13T13:33:54.797Z,9.23
2018-11-13T13:36:24.939Z,2.73
2018-11-13T13:38:55.167Z,2.60
2018-11-13T13:41:25.303Z,3.70
2018-11-13T13:43:55.354Z,4.27
2018-11-13T13:46:25.399Z,3.57
2018-11-13T13:48:55.480Z,1.00
2018-11-13T13:51:25.513Z,5.53
2018-11-13T13:53:55.670Z,1.33
2018-11-13T13:56:25.703Z,3.27
2018-11-13T13:58:55.732Z,1.27
2018-11-13T14:01:25.795Z,1.70
2018-11-13T14:03:55.853Z,1.83
2018-11-13T14:06:25.822Z,0.93
2018-11-13T14:08:55.892Z,1.00
2018-11-13T14:11:25.977Z,1.10
2018-11-13T14:13:56.152Z,1.00
2018-11-13T14:16:26.169Z,2.57
2018-11-13T14:18:56.270Z,1.60
2018-11-13T14:21:26.365Z,4.40
2018-11-13T14:23:56.525Z,9.20
2018-11-13T14:26:26.608Z,5.80
2018-11-13T14:28:56.725Z,1.93
2018-11-13T14:31:26.796Z,3.43
2018-11-13T14:33:56.888Z,2.00
2018-11-13T14:36:26.996Z,4.03
2018-11-13T14:38:57.065Z,1.63
2018-11-13T14:41:27.099Z,5.27
2018-11-13T14:43:57.193Z,13.77
2018-11-13T14:46:27.297Z,6.47
2018-11-13T14:48:57.360Z,2.73
2018-11-13T14:51:27.418Z,4.83
2018-11-13T14:53:57.434Z,20.33
2018-11-13T14:56:27.542Z,3.03
2018-11-13T14:58:57.616Z,13.23
2018-11-13T15:01:27.892Z,18.03
2018-11-13T15:03:57.883Z,3.37
2018-11-13T15:06:27.960Z,7.10
2018-11-13T15:08:59.551Z,9.27
2018-11-13T15:11:28.057Z,15.30
2018-11-13T15:13:58.067Z,10.00
2018-11-13T15:16:28.162Z,3.97
2018-11-13T15:18:58.174Z,3.30
2018-11-13T15:21:28.406Z,2.90
2018-11-13T15:23:58.515Z,1.83
2018-11-13T15:26:28.537Z,2.43
2018-11-13T15:28:58.583Z,2.93
2018-11-13T15:31:28.674Z,1.60
2018-11-13T15:33:58.725Z,2.80
2018-11-13T15:36:28.760Z,2.80
2018-11-13T15:38:58.811Z,1.87
2018-11-13T15:41:29.024Z,2.63
2018-11-13T15:43:59.136Z,3.90
2018-11-13T15:46:29.201Z,3.77
2018-11-13T15:48:59.306Z,4.17
2018-11-13T15:51:29.464Z,6.53
2018-11-13T15:53:59.517Z,12.67
2018-11-13T15:56:29.671Z,22.53
2018-11-13T15:59:00.113Z,22.67
2018-11-13T16:01:30.245Z,34.93
2018-11-13T16:04:00.202Z,28.20
2018-11-13T16:06:30.416Z,19.97
2018-11-13T16:09:00.428Z,82.40
2018-11-13T16:11:30.496Z,17.37
2018-11-13T16:14:00.571Z,11.87
2018-11-13T16:16:30.625Z,5.03
2018-11-13T16:19:00.544Z,2.80
2018-11-13T16:21:30.621Z,4.87
2018-11-13T16:24:00.867Z,3.27
2018-11-13T16:26:30.998Z,2.50
2018-11-13T16:29:01.089Z,3.40
2018-11-13T16:31:31.367Z,2.27
2018-11-13T16:34:01.623Z,2.70
2018-11-13T16:36:31.961Z,3.77
2018-11-13T16:39:02.120Z,3.00
2018-11-13T16:41:32.323Z,4.40
2018-11-13T16:44:02.510Z,4.73
2018-11-13T16:46:32.757Z,3.87
2018-11-13T16:49:02.956Z,5.47
2018-11-13T16:51:33.210Z,11.17
2018-11-13T16:54:04.164Z,4.87
2018-11-13T16:56:39.255Z,3.63
2018-11-13T16:59:09.629Z,3.73
2018-11-13T17:01:54.766Z,5.33
2018-11-13T17:04:24.850Z,4.03
2018-11-13T17:06:55.299Z,5.73
2018-11-13T17:09:25.408Z,4.83
2018-11-13T17:11:55.661Z,5.17
2018-11-13T17:14:25.706Z,4.50
2018-11-13T17:16:55.886Z,5.93
2018-11-13T17:19:26.309Z,5.87
2018-11-13T17:21:56.559Z,6.83
2018-11-13T17:24:26.878Z,4.33
2018-11-13T17:26:57.030Z,7.43
2018-11-13T17:29:27.111Z,4.47
2018-11-13T17:31:57.404Z,6.70
2018-11-13T17:34:27.497Z,8.20
2018-11-13T17:36:57.710Z,7.50
2018-11-13T17:39:28.053Z,6.43
2018-11-13T17:41:58.188Z,7.73
2018-11-13T17:44:28.251Z,7.80
2018-11-13T17:46:58.486Z,9.03
2018-11-13T17:49:28.643Z,7.63
2018-11-13T17:51:58.808Z,7.53
2018-11-13T17:54:29.104Z,7.27
2018-11-13T17:56:59.436Z,7.60
2018-11-13T17:59:29.823Z,7.17
2018-11-13T18:02:00.187Z,7.10
2018-11-13T18:04:30.536Z,8.70
2018-11-13T18:07:00.592Z,9.03
2018-11-13T18:09:31.155Z,8.43
2018-11-13T18:12:02.039Z,7.13
2018-11-13T18:14:32.167Z,7.70
2018-11-13T18:17:02.398Z,8.27
2018-11-13T18:19:34.386Z,8.17
2018-11-13T18:22:05.081Z,7.40
2018-11-13T18:24:35.373Z,7.37
2018-11-13T18:27:05.597Z,9.20
2018-11-13T18:29:35.696Z,8.60
2018-11-13T18:32:05.998Z,9.70
2018-11-13T18:34:36.161Z,8.77
2018-11-13T18:37:06.580Z,9.53
2018-11-13T18:39:36.637Z,8.73
2018-11-13T18:42:06.981Z,10.60
2018-11-13T18:44:37.169Z,9.57
2018-11-13T18:47:07.291Z,8.83
2018-11-13T18:49:37.339Z,9.80
2018-11-13T18:52:07.505Z,13.23
2018-11-13T18:54:37.649Z,11.53
2018-11-13T18:57:08.753Z,14.10
2018-11-13T18:59:38.888Z,13.30
2018-11-13T19:02:09.085Z,13.23
2018-11-13T19:04:39.266Z,10.57
2018-11-13T19:07:09.397Z,11.57
2018-11-13T19:09:39.568Z,11.67
2018-11-13T19:12:09.845Z,15.03
2018-11-13T19:14:39.953Z,19.20
2018-11-13T19:17:10.209Z,23.10
2018-11-13T19:19:40.410Z,23.73
2018-11-13T19:22:10.506Z,20.43
2018-11-13T19:24:40.609Z,15.20
2018-11-13T19:27:10.838Z,11.57
2018-11-13T19:29:40.899Z,13.77
2018-11-13T19:32:11.199Z,13.47
2018-11-13T19:34:41.366Z,14.20
2018-11-13T19:37:11.451Z,15.00
2018-11-13T19:39:41.705Z,14.17
2018-11-13T19:42:12.085Z,15.00
2018-11-13T19:44:42.427Z,13.60
2018-11-13T19:47:12.760Z,16.93
2018-11-13T19:49:43.115Z,14.93
2018-11-13T19:52:13.194Z,15.93
2018-11-13T19:54:43.320Z,15.53
2018-11-13T19:57:13.422Z,17.40
2018-11-13T19:59:43.564Z,16.33
2018-11-13T20:02:13.641Z,16.27
2018-11-13T20:04:43.976Z,16.93
2018-11-13T20:07:14.171Z,13.23
2018-11-13T20:09:44.696Z,16.97
2018-11-13T20:12:14.907Z,18.83
2018-11-13T20:14:45.148Z,19.40
2018-11-13T20:17:15.234Z,15.10
2018-11-13T20:19:45.280Z,16.50
2018-11-13T20:22:15.456Z,16.00
2018-11-13T20:24:45.782Z,19.37
2018-11-13T20:27:15.821Z,17.17
2018-11-13T20:29:46.076Z,20.17
2018-11-13T20:32:16.488Z,17.60
2018-11-13T20:34:47.115Z,19.20
2018-11-13T20:37:17.225Z,16.87
2018-11-13T20:39:47.314Z,17.63
2018-11-13T20:42:17.574Z,18.30
2018-11-13T20:44:47.808Z,16.37
2018-11-13T20:47:18.108Z,18.27
2018-11-13T20:49:48.072Z,18.30
2018-11-13T20:52:18.215Z,15.50
2018-11-13T20:54:48.302Z,19.43
2018-11-13T20:57:18.364Z,19.10
2018-11-13T20:59:48.444Z,17.00
2018-11-13T21:02:18.581Z,21.53
2018-11-13T21:04:48.672Z,20.23
2018-11-13T21:07:18.963Z,24.63
2018-11-13T21:09:49.153Z,25.07
2018-11-13T21:12:19.287Z,21.57
2018-11-13T21:14:49.304Z,21.73
2018-11-13T21:17:19.695Z,20.33
2018-11-13T21:19:49.832Z,18.60
2018-11-13T21:22:19.664Z,15.53
2018-11-13T21:24:49.782Z,15.47
2018-11-13T21:27:19.997Z,22.13
2018-11-13T21:29:50.030Z,19.80
2018-11-13T21:32:20.111Z,20.40
2018-11-13T21:34:50.260Z,23.47
2018-11-13T21:37:20.412Z,21.37
2018-11-13T21:39:50.518Z,22.40
2018-11-13T21:42:20.767Z,22.67
2018-11-13T21:44:50.796Z,20.00
2018-11-13T21:47:20.936Z,20.60
2018-11-13T21:49:51.050Z,19.93
2018-11-13T21:52:21.509Z,16.43
2018-11-13T21:54:51.537Z,17.07
2018-11-13T21:57:21.691Z,19.53
2018-11-13T21:59:51.918Z,18.30
2018-11-13T22:02:21.985Z,17.63
2018-11-13T22:04:52.165Z,20.43
2018-11-13T22:07:22.175Z,19.73
2018-11-13T22:09:52.247Z,21.53
2018-11-13T22:12:22.508Z,18.03
2018-11-13T22:14:52.563Z,19.47
2018-11-13T22:17:22.567Z,17.60
2018-11-13T22:19:52.594Z,19.73
2018-11-13T22:22:22.793Z,18.90
2018-11-13T22:24:52.896Z,17.73
2018-11-13T22:27:23.104Z,18.77
2018-11-13T22:29:53.189Z,18.23
2018-11-13T22:32:22.965Z,17.63
2018-11-13T22:34:53.158Z,17.93
2018-11-13T22:37:23.399Z,18.23
2018-11-13T22:39:53.604Z,19.03
2018-11-13T22:42:23.575Z,15.97
2018-11-13T22:44:53.589Z,18.17
2018-11-13T22:47:23.663Z,17.37
2018-11-13T22:49:53.777Z,19.70
2018-11-13T22:52:23.809Z,20.60
2018-11-13T22:54:53.899Z,20.03
2018-11-13T22:57:24.044Z,19.13
2018-11-13T22:59:54.171Z,21.00
2018-11-13T23:02:24.320Z,19.00
2018-11-13T23:04:54.367Z,19.43
2018-11-13T23:07:24.513Z,17.17
2018-11-13T23:09:54.583Z,18.67
2018-11-13T23:12:24.658Z,21.60
2018-11-13T23:14:55.807Z,20.03
2018-11-13T23:17:25.894Z,18.13
2018-11-13T23:19:55.910Z,17.57
2018-11-13T23:22:26.038Z,19.30
2018-11-13T23:24:56.087Z,18.83
2018-11-13T23:27:26.047Z,22.00
2018-11-13T23:29:56.173Z,19.20
2018-11-13T23:32:26.284Z,19.47
2018-11-13T23:34:56.439Z,19.87
2018-11-13T23:37:26.401Z,21.93
2018-11-13T23:39:56.476Z,20.83
2018-11-13T23:42:26.530Z,21.70
2018-11-13T23:44:56.638Z,21.43
2018-11-13T23:47:26.745Z,19.10
2018-11-13T23:49:56.986Z,19.07
2018-11-13T23:52:26.828Z,19.27
2018-11-13T23:54:56.971Z,18.13
2018-11-13T23:57:27.001Z,18.00
2018-11-13T23:59:57.087Z,18.37
